createdAt,value
2019-03-13T00:00:37.981Z,16.3
2019-03-13T00:01:30.994Z,16.3
2019-03-13T00:02:16.948Z,16.3
2019-03-13T00:03:06.828Z,16.3
2019-03-13T00:03:57.088Z,16.3
2019-03-13T00:04:46.565Z,16.3
2019-03-13T00:05:37.755Z,16.3
2019-03-13T00:06:27.742Z,16.3
2019-03-13T00:07:18.061Z,16.3
2019-03-13T00:08:08.220Z,16.3
2019-03-13T00:08:58.172Z,16.3
2019-03-13T00:09:48.526Z,16.3
2019-03-13T00:10:41.105Z,16.3
2019-03-13T00:11:28.150Z,16.3
2019-03-13T00:12:17.933Z,16.3
2019-03-13T00:13:09.036Z,16.3
2019-03-13T00:13:57.698Z,16.3
2019-03-13T00:14:47.814Z,16.3
2019-03-13T00:15:38.500Z,16.3
2019-03-13T00:16:28.159Z,16.3
2019-03-13T00:17:18.527Z,16.3
2019-03-13T00:18:08.579Z,16.3
2019-03-13T00:18:58.900Z,16.3
2019-03-13T00:19:48.707Z,16.3
2019-03-13T00:20:38.494Z,16.3
2019-03-13T00:21:28.359Z,16.3
2019-03-13T00:22:18.609Z,16.3
2019-03-13T00:23:09.301Z,16.3
2019-03-13T00:23:58.963Z,16.3
2019-03-13T00:24:49.675Z,16.3
2019-03-13T00:25:38.952Z,16.3
2019-03-13T00:26:28.659Z,16.3
2019-03-13T00:27:19.306Z,16.3
2019-03-13T00:28:09.653Z,16.3
2019-03-13T00:28:59.327Z,16.2
2019-03-13T00:29:48.831Z,16.3
2019-03-13T00:30:39.184Z,16.3
2019-03-13T00:31:28.496Z,16.3
2019-03-13T00:32:19.343Z,16.3
2019-03-13T00:33:09.779Z,16.3
2019-03-13T00:34:00.239Z,16.3
2019-03-13T00:34:49.496Z,16.3
2019-03-13T00:35:39.558Z,16.3
2019-03-13T00:36:29.606Z,16.3
2019-03-13T00:37:19.401Z,16.3
2019-03-13T00:38:10.081Z,16.3
2019-03-13T00:38:59.756Z,16.3
2019-03-13T00:39:49.593Z,16.3
2019-03-13T00:40:40.498Z,16.3
2019-03-13T00:41:29.651Z,16.2
2019-03-13T00:42:20.025Z,16.2
2019-03-13T00:43:10.758Z,16.2
2019-03-13T00:44:00.195Z,16.3
2019-03-13T00:44:50.247Z,16.3
2019-03-13T00:45:40.023Z,16.3
2019-03-13T00:46:30.302Z,16.3
2019-03-13T00:47:20.651Z,16.3
2019-03-13T00:48:10.010Z,16.3
2019-03-13T00:49:01.071Z,16.3
2019-03-13T00:49:51.355Z,16.2
2019-03-13T00:50:41.179Z,16.3
2019-03-13T00:51:31.055Z,16.2
2019-03-13T00:52:21.122Z,16.2
2019-03-13T00:53:10.883Z,16.2
2019-03-13T00:54:00.272Z,16.2
2019-03-13T00:54:50.614Z,16.2
2019-03-13T00:55:41.282Z,16.2
2019-03-13T00:56:31.569Z,16.2
2019-03-13T00:57:21.632Z,16.2
2019-03-13T00:58:11.460Z,16.2
2019-03-13T00:59:02.048Z,16.2
2019-03-13T00:59:51.257Z,16.2
2019-03-13T01:00:41.957Z,16.2
2019-03-13T01:01:31.446Z,16.2
2019-03-13T01:02:22.552Z,16.3
2019-03-13T01:03:11.532Z,16.3
2019-03-13T01:04:01.844Z,16.2
2019-03-13T01:04:51.929Z,16.2
2019-03-13T01:05:42.241Z,16.2
2019-03-13T01:06:32.309Z,16.2
2019-03-13T01:07:21.814Z,16.2
2019-03-13T01:08:12.689Z,16.2
2019-03-13T01:09:02.669Z,16.3
2019-03-13T01:09:50.999Z,16.3
2019-03-13T01:10:41.961Z,16.3
2019-03-13T01:11:34.381Z,16.2
2019-03-13T01:12:21.687Z,16.2
2019-03-13T01:13:11.776Z,16.2
2019-03-13T01:14:02.854Z,16.2
2019-03-13T01:14:51.476Z,16.2
2019-03-13T01:15:42.751Z,16.2
2019-03-13T01:16:32.365Z,16.2
2019-03-13T01:17:22.678Z,16.2
2019-03-13T01:18:12.596Z,16.2
2019-03-13T01:19:02.183Z,16.2
2019-03-13T01:19:53.031Z,16.2
2019-03-13T01:20:42.549Z,16.2
2019-03-13T01:21:33.136Z,16.2
2019-03-13T01:22:23.236Z,16.2
2019-03-13T01:23:13.100Z,16.2
2019-03-13T01:24:03.606Z,16.2
2019-03-13T01:24:53.639Z,16.2
2019-03-13T01:25:42.394Z,16.2
2019-03-13T01:26:33.863Z,16.2
2019-03-13T01:27:23.313Z,16.2
2019-03-13T01:28:13.651Z,16.2
2019-03-13T01:29:04.455Z,16.2
2019-03-13T01:29:54.275Z,16.2
2019-03-13T01:30:43.803Z,16.2
2019-03-13T01:31:33.535Z,16.2
2019-03-13T01:32:23.658Z,16.2
2019-03-13T01:33:14.190Z,16.2
2019-03-13T01:34:04.078Z,16.2
2019-03-13T01:34:53.190Z,16.1
2019-03-13T01:35:44.202Z,16.2
2019-03-13T01:36:34.140Z,16.2
2019-03-13T01:37:24.564Z,16.2
2019-03-13T01:38:14.277Z,16.2
2019-03-13T01:39:04.632Z,16.2
2019-03-13T01:39:54.139Z,16.2
2019-03-13T01:40:44.729Z,16.2
2019-03-13T01:41:35.379Z,16.2
2019-03-13T01:42:25.225Z,16.2
2019-03-13T01:43:15.215Z,16.1
2019-03-13T01:44:05.945Z,16.2
2019-03-13T01:44:55.032Z,16.2
2019-03-13T01:45:45.100Z,16.2
2019-03-13T01:46:35.145Z,16.2
2019-03-13T01:47:24.652Z,16.2
2019-03-13T01:48:15.640Z,16.2
2019-03-13T01:49:05.149Z,16.2
2019-03-13T01:49:54.864Z,16.2
2019-03-13T01:50:44.352Z,16.1
2019-03-13T01:51:35.526Z,16.2
2019-03-13T01:52:24.819Z,16.2
2019-03-13T01:53:15.179Z,16.2
2019-03-13T01:54:05.604Z,16.1
2019-03-13T01:54:54.914Z,16.2
2019-03-13T01:55:45.706Z,16.1
2019-03-13T01:56:35.941Z,16.1
2019-03-13T01:57:26.237Z,16.2
2019-03-13T01:58:15.463Z,16.1
2019-03-13T01:59:06.704Z,16.1
2019-03-13T01:59:55.571Z,16.2
2019-03-13T02:00:46.162Z,16.1
2019-03-13T02:01:36.011Z,16.1
2019-03-13T02:02:25.714Z,16.1
2019-03-13T02:03:15.134Z,16.1
2019-03-13T02:04:06.463Z,16.1
2019-03-13T02:04:55.689Z,16.1
2019-03-13T02:05:45.836Z,16.2
2019-03-13T02:06:36.114Z,16.2
2019-03-13T02:07:26.746Z,16.2
2019-03-13T02:08:16.739Z,16.2
2019-03-13T02:09:06.835Z,16.2
2019-03-13T02:09:56.064Z,16.2
2019-03-13T02:10:46.955Z,16.2
2019-03-13T02:11:36.925Z,16.1
2019-03-13T02:12:26.193Z,16.2
2019-03-13T02:13:17.344Z,16.2
2019-03-13T02:14:06.658Z,16.1
2019-03-13T02:14:57.122Z,16.1
2019-03-13T02:15:45.643Z,16.1
2019-03-13T02:16:37.043Z,16.1
2019-03-13T02:17:27.358Z,16.1
2019-03-13T02:18:17.296Z,16.1
2019-03-13T02:19:05.833Z,16.1
2019-03-13T02:19:57.581Z,16.1
2019-03-13T02:20:47.682Z,16.1
2019-03-13T02:21:37.098Z,16.1
2019-03-13T02:22:26.625Z,16.1
2019-03-13T02:23:17.788Z,16.1
2019-03-13T02:24:07.364Z,16.1
2019-03-13T02:25:01.968Z,16.1
2019-03-13T02:25:47.492Z,16.1
2019-03-13T02:26:37.463Z,16.1
2019-03-13T02:27:27.812Z,16.1
2019-03-13T02:28:17.620Z,16.1
2019-03-13T02:29:07.912Z,16.1
2019-03-13T02:29:57.985Z,16.2
2019-03-13T02:30:48.116Z,16.1
2019-03-13T02:31:38.681Z,16.1
2019-03-13T02:32:28.534Z,16.1
2019-03-13T02:33:18.621Z,16.1
2019-03-13T02:34:08.507Z,16.1
2019-03-13T02:34:58.693Z,16.1
2019-03-13T02:35:49.305Z,16.1
2019-03-13T02:36:38.860Z,16.1
2019-03-13T02:37:29.620Z,16.1
2019-03-13T02:38:19.133Z,16.1
2019-03-13T02:39:09.007Z,16.1
2019-03-13T02:39:58.002Z,16.1
2019-03-13T02:40:48.890Z,16.1
2019-03-13T02:41:39.214Z,16.1
2019-03-13T02:42:27.925Z,16.1
2019-03-13T02:43:18.179Z,16.1
2019-03-13T02:44:08.936Z,16.1
2019-03-13T02:44:58.948Z,16.1
2019-03-13T02:45:48.478Z,16.1
2019-03-13T02:46:39.304Z,16.1
2019-03-13T02:47:29.139Z,16.1
2019-03-13T02:48:18.688Z,16.1
2019-03-13T02:49:08.487Z,16.1
2019-03-13T02:49:58.745Z,16.1
2019-03-13T02:50:49.848Z,16.1
2019-03-13T02:51:39.477Z,16.1
2019-03-13T02:52:30.388Z,16.1
2019-03-13T02:53:19.746Z,16.1
2019-03-13T02:54:09.545Z,16.1
2019-03-13T02:54:59.702Z,16.1
2019-03-13T02:55:49.114Z,16.1
2019-03-13T02:56:39.155Z,16.1
2019-03-13T02:57:30.698Z,16.1
2019-03-13T02:58:19.637Z,16.1
2019-03-13T02:59:10.956Z,16.1
2019-03-13T03:00:00.947Z,16.1
2019-03-13T03:00:50.910Z,16.1
2019-03-13T03:01:40.677Z,16.1
2019-03-13T03:02:29.989Z,16.1
2019-03-13T03:03:21.036Z,16.1
2019-03-13T03:04:11.041Z,16.1
2019-03-13T03:07:42.907Z,16.1
2019-03-13T03:08:32.378Z,16.1
2019-03-13T03:09:22.465Z,16.1
2019-03-13T03:10:13.081Z,16.1
2019-03-13T03:11:01.921Z,16.1
2019-03-13T03:11:52.494Z,16.1
2019-03-13T03:12:43.170Z,16.1
2019-03-13T03:13:32.795Z,16.1
2019-03-13T03:14:23.071Z,16.1
2019-03-13T03:15:12.703Z,16
2019-03-13T03:16:03.138Z,16.1
2019-03-13T03:16:52.888Z,16.1
2019-03-13T03:17:43.535Z,16.1
2019-03-13T03:18:32.799Z,16.1
2019-03-13T03:19:22.795Z,16.1
2019-03-13T03:20:12.510Z,16.1
2019-03-13T03:21:03.370Z,16.1
2019-03-13T03:21:52.700Z,16.1
2019-03-13T03:22:42.927Z,16.1
2019-03-13T03:23:33.282Z,16.1
2019-03-13T03:24:23.740Z,16.1
2019-03-13T03:25:13.997Z,16.1
2019-03-13T03:26:03.760Z,16.1
2019-03-13T03:26:53.664Z,16.1
2019-03-13T03:27:42.895Z,16.1
2019-03-13T03:28:33.594Z,16.1
2019-03-13T03:29:23.303Z,16.1
2019-03-13T03:30:14.435Z,16.1
2019-03-13T03:31:04.450Z,16.1
2019-03-13T03:31:53.935Z,16
2019-03-13T03:32:44.847Z,16.1
2019-03-13T03:33:34.572Z,16
2019-03-13T03:34:24.887Z,16.1
2019-03-13T03:35:13.953Z,16.1
2019-03-13T03:36:04.492Z,16
2019-03-13T03:36:53.749Z,16.1
2019-03-13T03:37:44.528Z,16.1
2019-03-13T03:38:34.669Z,16.1
2019-03-13T03:39:24.198Z,16.1
2019-03-13T03:40:14.510Z,16.1
2019-03-13T03:41:04.300Z,16.1
2019-03-13T03:41:55.131Z,16.1
2019-03-13T03:42:43.897Z,16.1
2019-03-13T03:43:48.971Z,16.1
2019-03-13T03:44:24.869Z,16.1
2019-03-13T03:45:14.891Z,16.1
2019-03-13T03:46:05.451Z,16.1
2019-03-13T03:46:54.872Z,16.1
2019-03-13T03:47:44.776Z,16.1
2019-03-13T03:48:35.559Z,16.1
2019-03-13T03:49:24.918Z,16.1
2019-03-13T03:50:15.520Z,16.1
2019-03-13T03:51:05.923Z,16.1
2019-03-13T03:51:55.281Z,16.1
2019-03-13T03:52:45.700Z,16.1
2019-03-13T03:53:35.461Z,16.1
2019-03-13T03:54:25.738Z,16.1
2019-03-13T03:55:15.643Z,16.1
2019-03-13T03:56:05.767Z,16.1
2019-03-13T03:56:55.981Z,16.1
2019-03-13T03:57:46.286Z,16.1
2019-03-13T03:58:38.268Z,16.1
2019-03-13T03:59:25.925Z,16.1
2019-03-13T04:00:15.253Z,16.1
2019-03-13T04:01:05.767Z,16.1
2019-03-13T04:01:55.535Z,16.1
2019-03-13T04:02:45.895Z,16.1
2019-03-13T04:03:35.488Z,16.1
2019-03-13T04:04:26.118Z,16.1
2019-03-13T04:05:16.573Z,16.1
2019-03-13T04:06:06.472Z,16.1
2019-03-13T04:06:56.127Z,16.1
2019-03-13T04:07:46.688Z,16.1
2019-03-13T04:08:41.548Z,16.1
2019-03-13T04:09:26.939Z,16.1
2019-03-13T04:10:16.514Z,16.1
2019-03-13T04:11:07.431Z,16.1
2019-03-13T04:11:57.062Z,16.1
2019-03-13T04:12:47.352Z,16.1
2019-03-13T04:13:36.691Z,16.1
2019-03-13T04:14:27.562Z,16.1
2019-03-13T04:15:17.715Z,16.1
2019-03-13T04:16:07.714Z,16.1
2019-03-13T04:16:57.359Z,16.1
2019-03-13T04:17:47.164Z,16.1
2019-03-13T04:18:36.452Z,16.1
2019-03-13T04:19:27.117Z,16.1
2019-03-13T04:20:17.521Z,16.1
2019-03-13T04:21:07.955Z,16.1
2019-03-13T04:21:57.728Z,16.1
2019-03-13T04:22:47.581Z,16.1
2019-03-13T04:23:37.952Z,16.1
2019-03-13T04:24:27.779Z,16.1
2019-03-13T04:25:33.124Z,16.1
2019-03-13T04:26:07.533Z,16.1
2019-03-13T04:26:57.971Z,16.1
2019-03-13T04:27:48.184Z,16.1
2019-03-13T04:28:38.237Z,16.1
2019-03-13T04:29:27.807Z,16.1
2019-03-13T04:30:18.820Z,16.1
2019-03-13T04:31:08.513Z,16.1
2019-03-13T04:31:58.216Z,16.1
2019-03-13T04:32:48.408Z,16.1
2019-03-13T04:33:38.237Z,16.1
2019-03-13T04:34:28.410Z,16.1
2019-03-13T04:35:18.965Z,16
2019-03-13T04:36:08.521Z,16.1
2019-03-13T04:36:58.251Z,16.1
2019-03-13T04:37:48.858Z,16.1
2019-03-13T04:38:39.388Z,16.1
2019-03-13T04:39:29.207Z,16.1
2019-03-13T04:40:18.755Z,16.1
2019-03-13T04:41:08.533Z,16.1
2019-03-13T04:41:58.941Z,16.1
2019-03-13T04:42:48.113Z,16.1
2019-03-13T04:43:39.170Z,16.1
2019-03-13T04:44:28.395Z,16.1
2019-03-13T04:45:19.098Z,16.1
2019-03-13T04:46:08.657Z,16.1
2019-03-13T04:46:58.890Z,16.1
2019-03-13T04:47:48.642Z,16.1
2019-03-13T04:48:39.492Z,16.1
2019-03-13T04:49:29.602Z,16.1
2019-03-13T04:50:19.147Z,16.1
2019-03-13T04:51:09.137Z,16.1
2019-03-13T04:51:59.560Z,16.1
2019-03-13T04:52:48.352Z,16.1
2019-03-13T04:53:39.125Z,16.1
2019-03-13T04:54:29.227Z,16.1
2019-03-13T04:55:18.753Z,16.1
2019-03-13T04:56:09.148Z,16.2
2019-03-13T04:56:58.286Z,16.2
2019-03-13T04:57:49.412Z,16.2
2019-03-13T04:58:39.181Z,16.1
2019-03-13T04:59:29.269Z,16.1
2019-03-13T05:00:20.522Z,16.1
2019-03-13T05:01:10.139Z,16.1
2019-03-13T05:01:59.131Z,16.1
2019-03-13T05:02:49.719Z,16.1
2019-03-13T05:03:40.656Z,16.1
2019-03-13T05:04:30.373Z,16.1
2019-03-13T05:05:20.509Z,16.1
2019-03-13T05:06:10.763Z,16.1
2019-03-13T05:06:59.971Z,16.1
2019-03-13T05:07:51.136Z,16.2
2019-03-13T05:08:53.784Z,16.2
2019-03-13T05:09:31.367Z,16.1
2019-03-13T05:10:20.788Z,16.2
2019-03-13T05:11:10.571Z,16.2
2019-03-13T05:12:01.486Z,16.1
2019-03-13T05:12:51.548Z,16.2
2019-03-13T05:13:41.597Z,16.2
2019-03-13T05:14:34.454Z,16.2
2019-03-13T05:15:21.186Z,16.2
2019-03-13T05:16:10.737Z,16.2
2019-03-13T05:17:01.223Z,16.2
2019-03-13T05:17:51.298Z,16.2
2019-03-13T05:18:41.437Z,16.2
2019-03-13T05:19:32.037Z,16.1
2019-03-13T05:20:22.467Z,16.1
2019-03-13T05:21:11.303Z,16.1
2019-03-13T05:22:01.369Z,16.1
2019-03-13T05:22:51.649Z,16.1
2019-03-13T05:23:42.002Z,16.2
2019-03-13T05:24:31.751Z,16.2
2019-03-13T05:25:25.414Z,16.2
2019-03-13T05:26:11.746Z,16.2
2019-03-13T05:27:02.188Z,16.2
2019-03-13T05:27:51.464Z,16.2
2019-03-13T05:28:41.128Z,16.2
2019-03-13T05:29:32.168Z,16.2
2019-03-13T05:30:22.451Z,16.2
2019-03-13T05:31:12.121Z,16.2
2019-03-13T05:32:01.766Z,16.2
2019-03-13T05:32:52.364Z,16.2
2019-03-13T05:33:43.143Z,16.2
2019-03-13T05:34:32.634Z,16.1
2019-03-13T05:35:22.919Z,16.2
2019-03-13T05:36:16.184Z,16.1
2019-03-13T05:37:03.379Z,16.2
2019-03-13T05:37:52.041Z,16.1
2019-03-13T05:38:43.400Z,16.1
2019-03-13T05:39:33.650Z,16.1
2019-03-13T05:40:23.246Z,16.1
2019-03-13T05:41:13.339Z,16.1
2019-03-13T05:42:03.118Z,16.1
2019-03-13T05:42:52.140Z,16
2019-03-13T05:43:42.645Z,15.9
2019-03-13T05:44:32.946Z,15.9
2019-03-13T05:45:23.278Z,15.8
2019-03-13T05:46:12.897Z,15.8
2019-03-13T05:47:03.642Z,15.8
2019-03-13T05:47:54.000Z,15.8
2019-03-13T05:48:43.853Z,15.8
2019-03-13T05:49:34.087Z,15.9
2019-03-13T05:50:24.227Z,15.9
2019-03-13T05:51:14.055Z,15.9
2019-03-13T05:52:03.761Z,16
2019-03-13T05:52:53.770Z,16
2019-03-13T05:53:44.200Z,15.9
2019-03-13T05:54:34.192Z,15.9
2019-03-13T05:55:24.055Z,15.8
2019-03-13T05:56:13.747Z,15.9
2019-03-13T05:57:04.730Z,15.9
2019-03-13T05:57:53.715Z,16
2019-03-13T05:58:44.213Z,16.1
2019-03-13T05:59:34.527Z,16.1
2019-03-13T06:00:24.057Z,16.1
2019-03-13T06:01:14.912Z,16.1
2019-03-13T06:02:04.844Z,16.1
2019-03-13T06:02:56.212Z,16
2019-03-13T06:05:41.424Z,15.9
2019-03-13T06:06:31.461Z,15.9
2019-03-13T06:07:21.544Z,15.9
2019-03-13T06:08:11.854Z,15.9
2019-03-13T06:09:01.537Z,15.9
2019-03-13T06:09:52.269Z,15.9
2019-03-13T06:10:41.419Z,15.9
2019-03-13T06:11:32.060Z,15.9
2019-03-13T06:12:22.646Z,15.8
2019-03-13T06:13:11.662Z,15.8
2019-03-13T06:14:02.623Z,15.8
2019-03-13T06:14:52.329Z,15.8
2019-03-13T06:15:42.376Z,15.8
2019-03-13T06:16:32.953Z,15.8
2019-03-13T06:17:23.038Z,15.8
2019-03-13T06:18:16.476Z,15.8
2019-03-13T06:19:02.576Z,15.8
2019-03-13T06:19:52.578Z,15.8
2019-03-13T06:20:43.066Z,15.8
2019-03-13T06:21:32.996Z,15.8
2019-03-13T06:22:22.270Z,15.8
2019-03-13T06:23:13.101Z,15.8
2019-03-13T06:24:03.457Z,15.8
2019-03-13T06:24:52.398Z,15.8
2019-03-13T06:25:43.376Z,15.8
2019-03-13T06:26:32.248Z,15.8
2019-03-13T06:27:22.302Z,15.8
2019-03-13T06:28:12.926Z,15.8
2019-03-13T06:29:03.824Z,15.8
2019-03-13T06:29:53.578Z,15.8
2019-03-13T06:30:43.432Z,15.8
2019-03-13T06:31:33.523Z,15.8
2019-03-13T06:32:22.490Z,15.8
2019-03-13T06:33:12.851Z,15.8
2019-03-13T06:34:03.298Z,15.8
2019-03-13T06:34:53.372Z,15.8
2019-03-13T06:35:43.985Z,15.8
2019-03-13T06:36:34.067Z,15.8
2019-03-13T06:37:24.435Z,15.8
2019-03-13T06:38:14.156Z,15.8
2019-03-13T06:39:03.955Z,15.8
2019-03-13T06:39:54.087Z,15.8
2019-03-13T06:40:43.797Z,15.8
2019-03-13T06:41:35.065Z,15.8
2019-03-13T06:42:23.952Z,15.8
2019-03-13T06:43:13.443Z,15.8
2019-03-13T06:44:04.668Z,15.8
2019-03-13T06:44:54.460Z,15.8
2019-03-13T06:45:44.977Z,15.7
2019-03-13T06:46:33.940Z,15.8
2019-03-13T06:47:27.417Z,15.7
2019-03-13T06:48:14.404Z,15.7
2019-03-13T06:49:04.869Z,15.8
2019-03-13T06:49:54.982Z,15.8
2019-03-13T06:50:45.298Z,15.7
2019-03-13T06:51:35.463Z,15.7
2019-03-13T06:52:25.222Z,15.8
2019-03-13T06:53:15.162Z,15.7
2019-03-13T06:54:05.361Z,15.7
2019-03-13T06:54:54.519Z,15.7
2019-03-13T06:55:45.209Z,15.7
2019-03-13T06:56:35.464Z,15.7
2019-03-13T06:57:26.349Z,15.7
2019-03-13T06:58:14.184Z,15.7
2019-03-13T06:59:05.364Z,15.7
2019-03-13T06:59:55.411Z,15.7
2019-03-13T07:00:44.921Z,15.7
2019-03-13T07:01:34.999Z,15.7
2019-03-13T07:02:25.304Z,15.7
2019-03-13T07:03:15.976Z,15.7
2019-03-13T07:05:41.306Z,15.7
2019-03-13T07:06:30.484Z,15.7
2019-03-13T07:07:21.469Z,15.6
2019-03-13T07:08:11.434Z,15.7
2019-03-13T07:09:01.583Z,15.7
2019-03-13T07:09:52.986Z,15.7
2019-03-13T07:10:41.450Z,15.7
2019-03-13T07:11:32.509Z,15.7
2019-03-13T07:12:22.406Z,15.7
2019-03-13T07:13:12.113Z,15.7
2019-03-13T07:14:02.134Z,15.8
2019-03-13T07:14:52.823Z,15.7
2019-03-13T07:15:44.298Z,15.8
2019-03-13T07:16:32.566Z,15.8
2019-03-13T07:17:22.630Z,15.8
2019-03-13T07:18:12.137Z,15.8
2019-03-13T07:19:02.740Z,15.8
2019-03-13T07:19:52.523Z,15.8
2019-03-13T07:20:42.985Z,15.8
2019-03-13T07:21:32.973Z,15.8
2019-03-13T07:22:23.380Z,15.8
2019-03-13T07:23:12.781Z,15.8
2019-03-13T07:24:02.438Z,15.8
2019-03-13T07:24:51.940Z,15.8
2019-03-13T07:25:42.655Z,15.8
2019-03-13T07:26:33.061Z,15.8
2019-03-13T07:27:23.327Z,15.8
2019-03-13T07:28:13.130Z,15.8
2019-03-13T07:29:17.600Z,15.9
2019-03-13T07:29:52.502Z,16
2019-03-13T07:30:43.037Z,16.1
2019-03-13T07:31:33.480Z,16.1
2019-03-13T07:32:22.468Z,16.2
2019-03-13T07:33:13.230Z,16.3
2019-03-13T07:34:02.763Z,16.3
2019-03-13T07:34:53.570Z,16.3
2019-03-13T07:35:43.115Z,16.3
2019-03-13T07:36:33.458Z,16.3
2019-03-13T07:37:24.334Z,16.4
2019-03-13T07:38:16.690Z,16.4
2019-03-13T07:39:04.167Z,16.4
2019-03-13T07:39:53.186Z,16.4
2019-03-13T07:40:44.607Z,16.4
2019-03-13T07:41:37.594Z,16.5
2019-03-13T07:42:24.472Z,16.5
2019-03-13T07:43:14.206Z,16.5
2019-03-13T07:44:04.341Z,16.5
2019-03-13T07:44:53.583Z,16.5
2019-03-13T07:45:44.926Z,16.6
2019-03-13T07:46:34.711Z,16.5
2019-03-13T07:47:24.298Z,16.5
2019-03-13T07:48:14.560Z,16.5
2019-03-13T07:49:04.058Z,16.5
2019-03-13T07:49:55.206Z,16.6
2019-03-13T07:50:44.581Z,16.6
2019-03-13T07:51:34.219Z,16.6
2019-03-13T07:52:25.686Z,16.6
2019-03-13T07:53:15.026Z,16.6
2019-03-13T07:54:04.946Z,16.7
2019-03-13T07:54:55.371Z,16.7
2019-03-13T07:55:44.813Z,16.7
2019-03-13T07:56:34.901Z,16.7
2019-03-13T07:57:25.773Z,16.7
2019-03-13T07:58:15.636Z,16.7
2019-03-13T07:59:05.896Z,16.7
2019-03-13T07:59:55.690Z,16.7
2019-03-13T08:00:44.906Z,16.7
2019-03-13T08:01:35.823Z,16.8
2019-03-13T08:02:25.070Z,16.8
2019-03-13T08:03:16.187Z,16.8
2019-03-13T08:04:09.735Z,16.8
2019-03-13T08:04:56.105Z,16.8
2019-03-13T08:05:46.094Z,16.8
2019-03-13T08:06:35.617Z,16.8
2019-03-13T08:07:25.962Z,16.8
2019-03-13T08:08:15.722Z,16.8
2019-03-13T08:09:05.462Z,16.8
2019-03-13T08:09:56.120Z,16.8
2019-03-13T08:10:46.533Z,16.8
2019-03-13T08:11:36.524Z,16.8
2019-03-13T08:12:26.025Z,16.8
2019-03-13T08:13:16.670Z,16.8
2019-03-13T08:14:06.541Z,16.8
2019-03-13T08:14:56.195Z,16.8
2019-03-13T08:15:47.112Z,16.8
2019-03-13T08:16:36.314Z,16.8
2019-03-13T08:17:26.109Z,16.8
2019-03-13T08:18:17.367Z,16.8
2019-03-13T08:19:06.829Z,16.8
2019-03-13T08:19:57.094Z,16.8
2019-03-13T08:20:47.184Z,16.9
2019-03-13T08:21:38.109Z,16.9
2019-03-13T08:22:27.289Z,16.9
2019-03-13T08:23:17.033Z,16.9
2019-03-13T08:24:07.754Z,16.9
2019-03-13T08:24:57.149Z,16.9
2019-03-13T08:25:48.057Z,16.9
2019-03-13T08:26:37.056Z,16.9
2019-03-13T08:27:27.709Z,16.9
2019-03-13T08:28:17.147Z,16.8
2019-03-13T08:29:08.029Z,16.9
2019-03-13T08:29:57.311Z,16.9
2019-03-13T08:30:48.046Z,16.9
2019-03-13T08:31:37.938Z,16.9
2019-03-13T08:32:27.724Z,16.9
2019-03-13T08:33:17.607Z,16.9
2019-03-13T08:34:07.889Z,16.9
2019-03-13T08:34:58.143Z,16.9
2019-03-13T08:35:47.962Z,16.9
2019-03-13T08:36:41.180Z,16.9
2019-03-13T08:37:28.726Z,16.9
2019-03-13T08:38:17.891Z,16.9
2019-03-13T08:39:07.411Z,16.9
2019-03-13T08:39:57.670Z,16.9
2019-03-13T08:40:47.478Z,16.9
2019-03-13T08:41:38.113Z,16.9
2019-03-13T08:42:28.466Z,16.9
2019-03-13T08:43:18.515Z,16.9
2019-03-13T08:44:08.908Z,16.9
2019-03-13T08:44:58.348Z,16.9
2019-03-13T08:45:49.196Z,16.9
2019-03-13T08:46:38.735Z,16.9
2019-03-13T08:47:28.595Z,16.8
2019-03-13T08:48:19.095Z,16.9
2019-03-13T08:49:08.500Z,16.9
2019-03-13T08:49:59.828Z,16.9
2019-03-13T08:50:49.127Z,16.8
2019-03-13T08:51:39.799Z,16.8
2019-03-13T08:52:29.818Z,16.8
2019-03-13T08:53:18.920Z,16.8
2019-03-13T08:54:09.648Z,16.8
2019-03-13T08:54:59.883Z,16.8
2019-03-13T08:55:49.625Z,16.8
2019-03-13T08:56:39.230Z,16.8
2019-03-13T08:57:29.550Z,16.8
2019-03-13T08:58:19.087Z,16.8
2019-03-13T08:59:09.637Z,16.8
2019-03-13T08:59:58.613Z,16.8
2019-03-13T09:00:49.737Z,16.8
2019-03-13T09:01:40.330Z,16.8
2019-03-13T09:02:30.174Z,16.8
2019-03-13T09:03:19.914Z,16.8
2019-03-13T09:04:10.897Z,16.8
2019-03-13T09:04:59.217Z,16.8
2019-03-13T09:05:49.067Z,16.8
2019-03-13T09:06:39.862Z,16.8
2019-03-13T09:07:29.606Z,16.8
2019-03-13T09:08:20.834Z,16.8
2019-03-13T09:09:09.864Z,16.8
2019-03-13T09:10:00.892Z,16.9
2019-03-13T09:10:50.719Z,16.9
2019-03-13T09:11:40.812Z,16.9
2019-03-13T09:12:31.382Z,16.9
2019-03-13T09:13:20.354Z,16.9
2019-03-13T09:14:10.960Z,16.9
2019-03-13T09:14:59.961Z,16.9
2019-03-13T09:15:51.049Z,16.9
2019-03-13T09:22:31.876Z,17.1
2019-03-13T09:23:22.178Z,17.1
2019-03-13T09:24:11.146Z,17.1
2019-03-13T09:25:16.111Z,17.1
2019-03-13T09:26:41.826Z,17.1
2019-03-13T09:27:30.576Z,17.1
2019-03-13T09:28:21.948Z,17.1
2019-03-13T09:29:11.545Z,17.1
2019-03-13T09:30:01.864Z,17.1
2019-03-13T09:30:52.001Z,17.1
2019-03-13T09:33:22.620Z,17.1
2019-03-13T09:35:01.926Z,17.1
2019-03-13T09:35:52.573Z,17.1
2019-03-13T09:36:42.010Z,17.1
2019-03-13T09:37:32.068Z,17.1
2019-03-13T09:38:21.953Z,17.1
2019-03-13T09:45:03.190Z,16.9
2019-03-13T09:46:42.775Z,16.9
2019-03-13T09:49:16.819Z,17.1
2019-03-13T09:50:52.889Z,17.1
2019-03-13T09:51:42.836Z,17.1
2019-03-13T09:52:33.784Z,17.1
2019-03-13T09:53:23.204Z,17.1
2019-03-13T09:54:13.602Z,17.1
2019-03-13T09:55:07.051Z,17.1
2019-03-13T09:55:53.091Z,17.1
2019-03-13T09:56:43.236Z,17.1
2019-03-13T09:58:23.816Z,17.1
2019-03-13T10:00:03.971Z,17.1
2019-03-13T10:01:44.381Z,17.1
2019-03-13T10:02:33.356Z,17.1
2019-03-13T10:03:23.653Z,17.1
2019-03-13T10:04:14.001Z,17.1
2019-03-13T10:06:41.128Z,17.1
2019-03-13T10:07:31.023Z,17.1
2019-03-13T10:08:21.076Z,17.1
2019-03-13T10:09:11.931Z,17.1
2019-03-13T10:10:01.968Z,17.2
2019-03-13T10:10:51.988Z,17.1
2019-03-13T10:11:41.730Z,17.1
2019-03-13T10:12:31.827Z,17.2
2019-03-13T10:13:21.408Z,17.2
2019-03-13T10:14:11.936Z,17.2
2019-03-13T10:15:02.523Z,17.2
2019-03-13T10:15:52.068Z,17.2
2019-03-13T10:16:42.661Z,17.3
2019-03-13T10:17:32.543Z,17.3
2019-03-13T10:18:21.943Z,17.3
2019-03-13T10:19:12.076Z,17.3
2019-03-13T10:20:02.662Z,17.3
2019-03-13T10:20:52.427Z,17.3
2019-03-13T10:21:42.170Z,17.3
2019-03-13T10:22:33.333Z,17.3
2019-03-13T10:23:21.000Z,17.3
2019-03-13T10:24:12.918Z,17.3
2019-03-13T10:25:03.207Z,17.3
2019-03-13T10:25:56.345Z,17.3
2019-03-13T10:26:43.392Z,17.3
2019-03-13T10:27:32.305Z,17.3
2019-03-13T10:28:23.485Z,17.3
2019-03-13T10:29:13.349Z,17.3
2019-03-13T10:30:02.970Z,17.3
2019-03-13T10:30:53.105Z,17.3
2019-03-13T10:31:57.937Z,17.4
2019-03-13T10:32:34.070Z,17.3
2019-03-13T10:33:23.610Z,17.4
2019-03-13T10:34:13.056Z,17.4
2019-03-13T10:35:04.021Z,17.4
2019-03-13T10:35:53.542Z,17.4
2019-03-13T10:36:43.799Z,17.4
2019-03-13T10:37:33.842Z,17.4
2019-03-13T10:38:24.313Z,17.4
2019-03-13T10:39:13.707Z,17.4
2019-03-13T10:40:04.379Z,17.4
2019-03-13T10:40:53.524Z,17.4
2019-03-13T10:41:44.171Z,17.4
2019-03-13T10:42:33.876Z,17.4
2019-03-13T10:43:24.306Z,17.4
2019-03-13T10:44:14.084Z,17.4
2019-03-13T10:45:04.406Z,17.4
2019-03-13T10:45:54.469Z,17.4
2019-03-13T10:46:44.654Z,17.4
2019-03-13T10:47:34.683Z,17.4
2019-03-13T10:48:24.681Z,17.4
2019-03-13T10:49:14.421Z,17.3
2019-03-13T10:50:04.836Z,17.4
2019-03-13T10:50:54.543Z,17.3
2019-03-13T10:51:44.658Z,17.4
2019-03-13T10:52:34.661Z,17.4
2019-03-13T10:53:25.326Z,17.4
2019-03-13T10:54:14.488Z,17.3
2019-03-13T10:55:05.236Z,17.3
2019-03-13T10:55:57.881Z,17.3
2019-03-13T10:56:44.513Z,17.4
2019-03-13T10:57:35.021Z,17.4
2019-03-13T10:58:25.343Z,17.4
2019-03-13T10:59:14.586Z,17.4
2019-03-13T11:00:05.853Z,17.4
2019-03-13T11:00:55.725Z,17.4
2019-03-13T11:01:44.757Z,17.4
2019-03-13T11:02:35.101Z,17.4
2019-03-13T11:03:25.765Z,17.4
2019-03-13T11:04:15.568Z,17.4
2019-03-13T11:05:05.232Z,17.4
2019-03-13T11:05:55.103Z,17.4
2019-03-13T11:06:59.058Z,17.4
2019-03-13T11:07:37.115Z,17.4
2019-03-13T11:08:26.098Z,17.4
2019-03-13T11:09:16.675Z,17.4
2019-03-13T11:10:06.103Z,17.4
2019-03-13T11:10:55.227Z,17.4
2019-03-13T11:11:45.756Z,17.4
2019-03-13T11:12:35.820Z,17.4
2019-03-13T11:13:26.482Z,17.4
2019-03-13T11:14:23.895Z,17.4
2019-03-13T11:15:06.950Z,17.4
2019-03-13T11:15:56.597Z,17.4
2019-03-13T11:16:46.543Z,17.4
2019-03-13T11:17:36.758Z,17.4
2019-03-13T11:18:25.824Z,17.4
2019-03-13T11:19:15.754Z,17.4
2019-03-13T11:20:06.907Z,17.4
2019-03-13T11:20:56.697Z,17.4
2019-03-13T11:21:46.837Z,17.5
2019-03-13T11:22:37.066Z,17.5
2019-03-13T11:23:26.619Z,17.4
2019-03-13T11:24:16.719Z,17.4
2019-03-13T11:25:07.514Z,17.4
2019-03-13T11:25:56.869Z,17.4
2019-03-13T11:26:47.439Z,17.4
2019-03-13T11:27:37.714Z,17.5
2019-03-13T11:28:27.448Z,17.5
2019-03-13T11:29:17.871Z,17.5
2019-03-13T11:30:07.596Z,17.5
2019-03-13T11:30:58.091Z,17.4
2019-03-13T11:31:47.176Z,17.4
2019-03-13T11:32:38.172Z,17.4
2019-03-13T11:33:27.918Z,17.5
2019-03-13T11:34:17.684Z,17.5
2019-03-13T11:35:07.816Z,17.5
2019-03-13T11:35:57.486Z,17.5